sensor_id;sensor_type;location;lat;lon;timestamp;pressure;altitude;pressure_sealevel;temperature;humidity
26865;BME280;40618;51.166;10.322;2023-11-21T00:00:19;96764.47;;;6.57;89.55
26865;BME280;40618;51.166;10.322;2023-11-21T00:02:45;96763.63;;;6.56;89.68
26865;BME280;40618;51.166;10.322;2023-11-21T00:05:12;96765.47;;;6.51;89.18
26865;BME280;40618;51.166;10.322;2023-11-21T00:07:41;96763.88;;;6.47;89.52
26865;BME280;40618;51.166;10.322;2023-11-21T00:10:08;96765.59;;;6.47;89.59
26865;BME280;40618;51.166;10.322;2023-11-21T00:12:35;96760.47;;;6.47;90.10
26865;BME280;40618;51.166;10.322;2023-11-21T00:15:03;96764.75;;;6.46;89.59
26865;BME280;40618;51.166;10.322;2023-11-21T00:17:36;96764.69;;;6.48;89.62
26865;BME280;40618;51.166;10.322;2023-11-21T00:20:02;96773.19;;;6.51;89.86
26865;BME280;40618;51.166;10.322;2023-11-21T00:22:32;96761.97;;;6.54;89.69
26865;BME280;40618;51.166;10.322;2023-11-21T00:24:58;96764.56;;;6.54;89.44
26865;BME280;40618;51.166;10.322;2023-11-21T00:27:24;96771.41;;;6.53;90.02
26865;BME280;40618;51.166;10.322;2023-11-21T00:29:49;96769.69;;;6.54;89.88
26865;BME280;40618;51.166;10.322;2023-11-21T00:32:15;96772.28;;;6.54;89.96
26865;BME280;40618;51.166;10.322;2023-11-21T00:34:40;96770.69;;;6.48;89.76
26865;BME280;40618;51.166;10.322;2023-11-21T00:37:07;96778.56;;;6.42;90.24
26865;BME280;40618;51.166;10.322;2023-11-21T00:39:33;96776.06;;;6.39;89.72
26865;BME280;40618;51.166;10.322;2023-11-21T00:42:00;96777.81;;;6.38;89.97
26865;BME280;40618;51.166;10.322;2023-11-21T00:44:26;96779.41;;;6.42;89.86
26865;BME280;40618;51.166;10.322;2023-11-21T00:46:51;96772.50;;;6.44;90.61
26865;BME280;40618;51.166;10.322;2023-11-21T00:49:17;96780.13;;;6.48;90.12
26865;BME280;40618;51.166;10.322;2023-11-21T00:51:42;96785.28;;;6.48;89.97
26865;BME280;40618;51.166;10.322;2023-11-21T00:54:08;96790.41;;;6.48;90.17
26865;BME280;40618;51.166;10.322;2023-11-21T00:56:33;96792.16;;;6.47;90.04
26865;BME280;40618;51.166;10.322;2023-11-21T00:58:59;96794.72;;;6.47;90.23
26865;BME280;40618;51.166;10.322;2023-11-21T01:01:25;96797.34;;;6.46;90.36
26865;BME280;40618;51.166;10.322;2023-11-21T01:03:50;96803.34;;;6.44;90.29
26865;BME280;40618;51.166;10.322;2023-11-21T01:06:16;96805.94;;;6.44;89.99
26865;BME280;40618;51.166;10.322;2023-11-21T01:08:43;96815.38;;;6.44;90.16
26865;BME280;40618;51.166;10.322;2023-11-21T01:11:10;96809.38;;;6.43;89.86
26865;BME280;40618;51.166;10.322;2023-11-21T01:13:41;96801.66;;;6.43;90.28
26865;BME280;40618;51.166;10.322;2023-11-21T01:16:07;96813.63;;;6.44;89.93
26865;BME280;40618;51.166;10.322;2023-11-21T01:18:35;96809.38;;;6.43;90.75
26865;BME280;40618;51.166;10.322;2023-11-21T01:21:01;96814.56;;;6.42;90.79
26865;BME280;40618;51.166;10.322;2023-11-21T01:23:27;96813.72;;;6.41;89.98
26865;BME280;40618;51.166;10.322;2023-11-21T01:25:53;96810.28;;;6.41;90.11
26865;BME280;40618;51.166;10.322;2023-11-21T01:28:20;96812.84;;;6.41;90.03
26865;BME280;40618;51.166;10.322;2023-11-21T01:30:46;96824.00;;;6.41;90.36
26865;BME280;40618;51.166;10.322;2023-11-21T01:33:13;96825.72;;;6.41;90.78
26865;BME280;40618;51.166;10.322;2023-11-21T01:35:41;96828.31;;;6.39;90.64
26865;BME280;40618;51.166;10.322;2023-11-21T01:38:07;96829.16;;;6.41;90.26
26865;BME280;40618;51.166;10.322;2023-11-21T01:40:33;96819.75;;;6.40;90.51
26865;BME280;40618;51.166;10.322;2023-11-21T01:43:00;96820.63;;;6.39;90.85
26865;BME280;40618;51.166;10.322;2023-11-21T01:45:28;96819.78;;;6.39;90.07
26865;BME280;40618;51.166;10.322;2023-11-21T01:47:56;96825.00;;;6.36;90.14
26865;BME280;40618;51.166;10.322;2023-11-21T01:50:23;96828.53;;;6.32;90.64
26865;BME280;40618;51.166;10.322;2023-11-21T01:52:50;96825.97;;;6.32;90.46
26865;BME280;40618;51.166;10.322;2023-11-21T01:55:17;96829.34;;;6.32;90.24
26865;BME280;40618;51.166;10.322;2023-11-21T01:57:44;96832.81;;;6.31;90.58
26865;BME280;40618;51.166;10.322;2023-11-21T02:00:13;96836.31;;;6.27;90.07
26865;BME280;40618;51.166;10.322;2023-11-21T02:02:43;96829.72;;;6.17;90.18
26865;BME280;40618;51.166;10.322;2023-11-21T02:05:16;96838.34;;;6.14;90.19
26865;BME280;40618;51.166;10.322;2023-11-21T02:07:47;96831.53;;;6.12;89.78
26865;BME280;40618;51.166;10.322;2023-11-21T02:10:14;96843.66;;;6.06;89.72
26865;BME280;40618;51.166;10.322;2023-11-21T02:12:41;96840.25;;;6.06;90.61
26865;BME280;40618;51.166;10.322;2023-11-21T02:15:08;96839.41;;;6.04;90.60
26865;BME280;40618;51.166;10.322;2023-11-21T02:17:43;96831.81;;;5.99;90.01
26865;BME280;40618;51.166;10.322;2023-11-21T02:20:13;96830.13;;;5.98;89.66
26865;BME280;40618;51.166;10.322;2023-11-21T02:22:43;96832.69;;;5.98;89.89
26865;BME280;40618;51.166;10.322;2023-11-21T02:25:30;96832.69;;;5.98;90.14
26865;BME280;40618;51.166;10.322;2023-11-21T02:27:58;96838.75;;;5.94;90.11
26865;BME280;40618;51.166;10.322;2023-11-21T02:30:26;96837.97;;;5.89;89.74
26865;BME280;40618;51.166;10.322;2023-11-21T02:32:58;96841.56;;;5.82;89.63
26865;BME280;40618;51.166;10.322;2023-11-21T02:35:25;96833.94;;;5.79;90.13
26865;BME280;40618;51.166;10.322;2023-11-21T02:37:52;96841.72;;;5.75;90.06
26865;BME280;40618;51.166;10.322;2023-11-21T02:40:18;96846.84;;;5.74;89.99
26865;BME280;40618;51.166;10.322;2023-11-21T02:42:48;96847.78;;;5.71;89.96
26865;BME280;40618;51.166;10.322;2023-11-21T02:45:16;96853.75;;;5.72;90.39
26865;BME280;40618;51.166;10.322;2023-11-21T02:47:45;96849.56;;;5.68;89.75
26865;BME280;40618;51.166;10.322;2023-11-21T02:50:11;96846.34;;;5.58;89.27
26865;BME280;40618;51.166;10.322;2023-11-21T02:52:37;96840.66;;;5.42;89.45
26865;BME280;40618;51.166;10.322;2023-11-21T02:55:05;96841.63;;;5.36;90.03
26865;BME280;40618;51.166;10.322;2023-11-21T02:57:32;96840.84;;;5.31;90.05
26865;BME280;40618;51.166;10.322;2023-11-21T02:59:59;96845.13;;;5.32;89.79
26865;BME280;40618;51.166;10.322;2023-11-21T03:02:28;96836.56;;;5.33;90.08
26865;BME280;40618;51.166;10.322;2023-11-21T03:04:53;96839.94;;;5.35;89.94
26865;BME280;40618;51.166;10.322;2023-11-21T03:07:19;96839.06;;;5.36;90.14
26865;BME280;40618;51.166;10.322;2023-11-21T03:09:45;96839.09;;;5.35;89.88
26865;BME280;40618;51.166;10.322;2023-11-21T03:12:11;96834.88;;;5.31;89.77
26865;BME280;40618;51.166;10.322;2023-11-21T03:14:38;96838.34;;;5.28;89.62
26865;BME280;40618;51.166;10.322;2023-11-21T03:17:07;96845.22;;;5.26;89.78
26865;BME280;40618;51.166;10.322;2023-11-21T03:19:32;96844.50;;;5.21;89.96
26865;BME280;40618;51.166;10.322;2023-11-21T03:21:58;96858.13;;;5.23;90.07
26865;BME280;40618;51.166;10.322;2023-11-21T03:24:24;96859.88;;;5.21;89.68
26865;BME280;40618;51.166;10.322;2023-11-21T03:26:50;96856.59;;;5.14;89.93
26865;BME280;40618;51.166;10.322;2023-11-21T03:29:16;96868.66;;;5.09;89.66
26865;BME280;40618;51.166;10.322;2023-11-21T03:31:41;96866.19;;;5.01;89.86
26865;BME280;40618;51.166;10.322;2023-11-21T03:34:15;96864.63;;;4.94;89.63
26865;BME280;40618;51.166;10.322;2023-11-21T03:36:41;96867.25;;;4.91;89.82
26865;BME280;40618;51.166;10.322;2023-11-21T03:39:07;96876.66;;;4.90;89.72
26865;BME280;40618;51.166;10.322;2023-11-21T03:41:32;96874.13;;;4.87;89.80
26865;BME280;40618;51.166;10.322;2023-11-21T03:43:59;96880.97;;;4.88;89.67
26865;BME280;40618;51.166;10.322;2023-11-21T03:46:24;96882.63;;;4.93;90.09
26865;BME280;40618;51.166;10.322;2023-11-21T03:48:50;96890.28;;;4.94;89.92
26865;BME280;40618;51.166;10.322;2023-11-21T03:51:16;96887.72;;;4.94;89.85
26865;BME280;40618;51.166;10.322;2023-11-21T03:53:41;96885.16;;;4.94;89.68
26865;BME280;40618;51.166;10.322;2023-11-21T03:56:07;96891.13;;;4.95;89.94
26865;BME280;40618;51.166;10.322;2023-11-21T03:58:33;96886.91;;;4.90;89.88
26865;BME280;40618;51.166;10.322;2023-11-21T04:00:59;96891.38;;;4.79;89.47
26865;BME280;40618;51.166;10.322;2023-11-21T04:03:24;96888.94;;;4.70;89.62
26865;BME280;40618;51.166;10.322;2023-11-21T04:05:50;96889.88;;;4.66;89.40
26865;BME280;40618;51.166;10.322;2023-11-21T04:08:16;96887.31;;;4.66;89.51
26865;BME280;40618;51.166;10.322;2023-11-21T04:10:41;96893.31;;;4.63;89.71
26865;BME280;40618;51.166;10.322;2023-11-21T04:13:07;96897.53;;;4.67;89.96
26865;BME280;40618;51.166;10.322;2023-11-21T04:15:33;96898.38;;;4.69;89.54
26865;BME280;40618;51.166;10.322;2023-11-21T04:17:58;96895.84;;;4.68;89.50
26865;BME280;40618;51.166;10.322;2023-11-21T04:20:24;96898.47;;;4.65;89.59
26865;BME280;40618;51.166;10.322;2023-11-21T04:22:50;96907.88;;;4.63;89.56
26865;BME280;40618;51.166;10.322;2023-11-21T04:25:16;96910.47;;;4.61;89.45
26865;BME280;40618;51.166;10.322;2023-11-21T04:27:43;96906.19;;;4.62;89.44
26865;BME280;40618;51.166;10.322;2023-11-21T04:30:11;96907.00;;;4.64;89.42
26865;BME280;40618;51.166;10.322;2023-11-21T04:32:37;96904.47;;;4.61;89.28
26865;BME280;40618;51.166;10.322;2023-11-21T04:35:04;96905.34;;;4.61;89.62
26865;BME280;40618;51.166;10.322;2023-11-21T04:37:30;96904.50;;;4.59;88.96
26865;BME280;40618;51.166;10.322;2023-11-21T04:39:56;96911.38;;;4.57;89.40
26865;BME280;40618;51.166;10.322;2023-11-21T04:42:22;96909.66;;;4.57;89.30
26865;BME280;40618;51.166;10.322;2023-11-21T04:44:48;96905.38;;;4.56;89.81
26865;BME280;40618;51.166;10.322;2023-11-21T04:47:14;96908.84;;;4.55;89.19
26865;BME280;40618;51.166;10.322;2023-11-21T04:49:43;96915.72;;;4.52;89.19
26865;BME280;40618;51.166;10.322;2023-11-21T04:52:12;96924.25;;;4.52;88.91
26865;BME280;40618;51.166;10.322;2023-11-21T04:54:37;96918.38;;;4.47;89.23
26865;BME280;40618;51.166;10.322;2023-11-21T04:57:05;96917.63;;;4.39;88.92
26865;BME280;40618;51.166;10.322;2023-11-21T04:59:32;96922.03;;;4.29;89.22
26865;BME280;40618;51.166;10.322;2023-11-21T05:01:59;96914.44;;;4.21;89.18
26865;BME280;40618;51.166;10.322;2023-11-21T05:04:25;96919.56;;;4.21;89.46
26865;BME280;40618;51.166;10.322;2023-11-21T05:06:51;96925.50;;;4.25;89.22
26865;BME280;40618;51.166;10.322;2023-11-21T05:09:16;96927.25;;;4.23;89.36
26865;BME280;40618;51.166;10.322;2023-11-21T05:11:42;96929.84;;;4.20;89.34
26865;BME280;40618;51.166;10.322;2023-11-21T05:14:08;96928.97;;;4.19;89.26
26865;BME280;40618;51.166;10.322;2023-11-21T05:16:34;96932.41;;;4.20;89.38
26865;BME280;40618;51.166;10.322;2023-11-21T05:19:00;96942.72;;;4.14;89.05
26865;BME280;40618;51.166;10.322;2023-11-21T05:21:27;96944.50;;;4.07;89.27
26865;BME280;40618;51.166;10.322;2023-11-21T05:23:54;96938.56;;;4.06;88.88
26865;BME280;40618;51.166;10.322;2023-11-21T05:26:20;96936.91;;;4.02;88.46
26865;BME280;40618;51.166;10.322;2023-11-21T05:28:45;96947.13;;;4.04;89.37
26865;BME280;40618;51.166;10.322;2023-11-21T05:31:11;96949.63;;;4.07;89.45
26865;BME280;40618;51.166;10.322;2023-11-21T05:33:37;96948.78;;;4.08;89.38
26865;BME280;40618;51.166;10.322;2023-11-21T05:36:03;96953.03;;;4.11;89.51
26865;BME280;40618;51.166;10.322;2023-11-21T05:38:28;96961.50;;;4.16;89.31
26865;BME280;40618;51.166;10.322;2023-11-21T05:40:54;96958.88;;;4.20;89.71
26865;BME280;40618;51.166;10.322;2023-11-21T05:43:20;96955.38;;;4.26;89.48
26865;BME280;40618;51.166;10.322;2023-11-21T05:45:45;96963.03;;;4.28;89.47
26865;BME280;40618;51.166;10.322;2023-11-21T05:48:11;96962.22;;;4.27;89.41
26865;BME280;40618;51.166;10.322;2023-11-21T05:50:37;96968.25;;;4.23;89.54
26865;BME280;40618;51.166;10.322;2023-11-21T05:53:03;96974.25;;;4.20;89.50
26865;BME280;40618;51.166;10.322;2023-11-21T05:55:29;96975.13;;;4.18;89.42
26865;BME280;40618;51.166;10.322;2023-11-21T05:57:55;96977.69;;;4.18;89.65
26865;BME280;40618;51.166;10.322;2023-11-21T06:00:20;96981.91;;;4.22;89.41
26865;BME280;40618;51.166;10.322;2023-11-21T06:02:51;96978.50;;;4.23;89.72
26865;BME280;40618;51.166;10.322;2023-11-21T06:05:19;96984.47;;;4.22;89.55
26865;BME280;40618;51.166;10.322;2023-11-21T06:07:49;96987.06;;;4.20;89.74
26865;BME280;40618;51.166;10.322;2023-11-21T06:10:15;96989.59;;;4.22;89.68
26865;BME280;40618;51.166;10.322;2023-11-21T06:12:43;97001.53;;;4.24;89.46
26865;BME280;40618;51.166;10.322;2023-11-21T06:15:10;97005.81;;;4.26;89.76
26865;BME280;40618;51.166;10.322;2023-11-21T06:17:39;97005.75;;;4.29;89.70
26865;BME280;40618;51.166;10.322;2023-11-21T06:20:06;97001.50;;;4.29;89.51
26865;BME280;40618;51.166;10.322;2023-11-21T06:22:40;97004.06;;;4.29;89.67
26865;BME280;40618;51.166;10.322;2023-11-21T06:25:08;97002.34;;;4.30;89.77
26865;BME280;40618;51.166;10.322;2023-11-21T06:27:39;96999.78;;;4.30;89.77
26865;BME280;40618;51.166;10.322;2023-11-21T06:30:10;97004.06;;;4.28;89.76
26865;BME280;40618;51.166;10.322;2023-11-21T06:32:37;97009.19;;;4.28;89.73
26865;BME280;40618;51.166;10.322;2023-11-21T06:35:05;97010.94;;;4.26;89.58
26865;BME280;40618;51.166;10.322;2023-11-21T06:37:32;97015.19;;;4.25;89.82
26865;BME280;40618;51.166;10.322;2023-11-21T06:39:59;97022.03;;;4.24;89.38
26865;BME280;40618;51.166;10.322;2023-11-21T06:42:25;97015.19;;;4.27;89.68
26865;BME280;40618;51.166;10.322;2023-11-21T06:44:52;97017.75;;;4.28;89.80
26865;BME280;40618;51.166;10.322;2023-11-21T06:47:18;97015.16;;;4.30;89.67
26865;BME280;40618;51.166;10.322;2023-11-21T06:49:47;97020.22;;;4.33;89.89
26865;BME280;40618;51.166;10.322;2023-11-21T06:52:15;97017.69;;;4.31;89.76
26865;BME280;40618;51.166;10.322;2023-11-21T06:54:41;97024.50;;;4.34;90.07
26865;BME280;40618;51.166;10.322;2023-11-21T06:57:07;97027.09;;;4.32;89.98
26865;BME280;40618;51.166;10.322;2023-11-21T06:59:33;97027.91;;;4.33;89.83
26865;BME280;40618;51.166;10.322;2023-11-21T07:01:59;97031.34;;;4.33;89.96
26865;BME280;40618;51.166;10.322;2023-11-21T07:04:25;97033.03;;;4.33;90.00
26865;BME280;40618;51.166;10.322;2023-11-21T07:06:54;97039.91;;;4.32;90.08
26865;BME280;40618;51.166;10.322;2023-11-21T07:09:20;97038.19;;;4.31;89.86
26865;BME280;40618;51.166;10.322;2023-11-21T07:11:51;97043.31;;;4.31;90.30
26865;BME280;40618;51.166;10.322;2023-11-21T07:14:17;97048.44;;;4.31;90.00
26865;BME280;40618;51.166;10.322;2023-11-21T07:16:45;97055.28;;;4.32;90.18
26865;BME280;40618;51.166;10.322;2023-11-21T07:19:11;97062.94;;;4.34;90.31
26865;BME280;40618;51.166;10.322;2023-11-21T07:21:37;97055.28;;;4.32;90.00
26865;BME280;40618;51.166;10.322;2023-11-21T07:24:07;97063.00;;;4.31;90.22
26865;BME280;40618;51.166;10.322;2023-11-21T07:26:34;97063.88;;;4.28;89.84
26865;BME280;40618;51.166;10.322;2023-11-21T07:29:04;97063.00;;;4.29;90.24
26865;BME280;40618;51.166;10.322;2023-11-21T07:31:29;97072.41;;;4.29;90.01
26865;BME280;40618;51.166;10.322;2023-11-21T07:33:55;97076.69;;;4.28;90.00
26865;BME280;40618;51.166;10.322;2023-11-21T07:36:24;97085.28;;;4.24;90.19
26865;BME280;40618;51.166;10.322;2023-11-21T07:38:51;97087.81;;;4.26;90.43
26865;BME280;40618;51.166;10.322;2023-11-21T07:41:17;97086.09;;;4.29;90.28
26865;BME280;40618;51.166;10.322;2023-11-21T07:43:46;97092.88;;;4.32;90.38
26865;BME280;40618;51.166;10.322;2023-11-21T07:46:12;97093.72;;;4.34;90.26
26865;BME280;40618;51.166;10.322;2023-11-21T07:48:39;97097.09;;;4.37;90.19
26865;BME280;40618;51.166;10.322;2023-11-21T07:51:07;97097.09;;;4.37;89.82
26865;BME280;40618;51.166;10.322;2023-11-21T07:53:34;97101.38;;;4.35;90.24
26865;BME280;40618;51.166;10.322;2023-11-21T07:56:04;97106.47;;;4.37;89.95
26865;BME280;40618;51.166;10.322;2023-11-21T07:58:31;97106.44;;;4.40;90.00
26865;BME280;40618;51.166;10.322;2023-11-21T08:00:59;97103.88;;;4.42;90.28
26865;BME280;40618;51.166;10.322;2023-11-21T08:03:25;97107.25;;;4.44;90.22
26865;BME280;40618;51.166;10.322;2023-11-21T08:05:58;97107.28;;;4.42;90.01
26865;BME280;40618;51.166;10.322;2023-11-21T08:08:24;97116.75;;;4.37;90.25
26865;BME280;40618;51.166;10.322;2023-11-21T08:10:50;97116.69;;;4.40;90.45
26865;BME280;40618;51.166;10.322;2023-11-21T08:13:26;97118.41;;;4.41;90.11
26865;BME280;40618;51.166;10.322;2023-11-21T08:15:57;97116.69;;;4.40;90.33
26865;BME280;40618;51.166;10.322;2023-11-21T08:18:27;97121.88;;;4.35;90.15
26865;BME280;40618;51.166;10.322;2023-11-21T08:20:54;97118.44;;;4.38;90.34
26865;BME280;40618;51.166;10.322;2023-11-21T08:23:20;97116.69;;;4.40;90.60
26865;BME280;40618;51.166;10.322;2023-11-21T08:25:50;97130.38;;;4.42;90.43
26865;BME280;40618;51.166;10.322;2023-11-21T08:28:16;97130.31;;;4.47;90.47
26865;BME280;40618;51.166;10.322;2023-11-21T08:30:42;97127.72;;;4.48;90.31
26865;BME280;40618;51.166;10.322;2023-11-21T08:33:08;97132.84;;;4.50;90.37
26865;BME280;40618;51.166;10.322;2023-11-21T08:35:34;97131.13;;;4.50;90.75
26865;BME280;40618;51.166;10.322;2023-11-21T08:38:02;97139.69;;;4.49;90.36
26865;BME280;40618;51.166;10.322;2023-11-21T08:40:29;97142.19;;;4.52;90.50
26865;BME280;40618;51.166;10.322;2023-11-21T08:42:55;97140.47;;;4.56;90.68
26865;BME280;40618;51.166;10.322;2023-11-21T08:45:21;97143.88;;;4.55;90.37
26865;BME280;40618;51.166;10.322;2023-11-21T08:47:47;97138.75;;;4.55;90.50
26865;BME280;40618;51.166;10.322;2023-11-21T08:50:13;97142.16;;;4.57;91.05
26865;BME280;40618;51.166;10.322;2023-11-21T08:52:40;97144.66;;;4.62;90.75
26865;BME280;40618;51.166;10.322;2023-11-21T08:55:07;97138.63;;;4.67;90.81
26865;BME280;40618;51.166;10.322;2023-11-21T08:57:35;97147.09;;;4.72;90.67
26865;BME280;40618;51.166;10.322;2023-11-21T09:00:01;97151.34;;;4.77;90.80
26865;BME280;40618;51.166;10.322;2023-11-21T09:02:35;97153.03;;;4.79;90.91
26865;BME280;40618;51.166;10.322;2023-11-21T09:05:02;97147.88;;;4.81;90.94
26865;BME280;40618;51.166;10.322;2023-11-21T09:07:29;97148.72;;;4.80;91.04
26865;BME280;40618;51.166;10.322;2023-11-21T09:09:55;97162.41;;;4.82;91.16
26865;BME280;40618;51.166;10.322;2023-11-21T09:12:21;97158.09;;;4.82;91.05
26865;BME280;40618;51.166;10.322;2023-11-21T09:14:47;97162.34;;;4.86;91.08
26865;BME280;40618;51.166;10.322;2023-11-21T09:17:12;97165.75;;;4.88;91.00
26865;BME280;40618;51.166;10.322;2023-11-21T09:19:40;97155.44;;;4.91;90.93
26865;BME280;40618;51.166;10.322;2023-11-21T09:22:06;97165.69;;;4.91;91.07
26865;BME280;40618;51.166;10.322;2023-11-21T09:24:33;97175.06;;;4.96;91.23
26865;BME280;40618;51.166;10.322;2023-11-21T09:26:59;97177.59;;;5.00;91.33
26865;BME280;40618;51.166;10.322;2023-11-21T09:29:28;97174.94;;;5.05;91.43
26865;BME280;40618;51.166;10.322;2023-11-21T09:31:55;97174.03;;;5.09;91.20
26865;BME280;40618;51.166;10.322;2023-11-21T09:34:24;97183.44;;;5.12;91.42
26865;BME280;40618;51.166;10.322;2023-11-21T09:36:51;97186.81;;;5.14;91.36
26865;BME280;40618;51.166;10.322;2023-11-21T09:39:17;97183.38;;;5.15;91.63
26865;BME280;40618;51.166;10.322;2023-11-21T09:41:53;97195.34;;;5.16;91.43
26865;BME280;40618;51.166;10.322;2023-11-21T09:47:10;97194.47;;;5.15;91.48
26865;BME280;40618;51.166;10.322;2023-11-21T09:49:42;97194.44;;;5.20;91.49
26865;BME280;40618;51.166;10.322;2023-11-21T09:52:25;97200.38;;;5.23;91.67
26865;BME280;40618;51.166;10.322;2023-11-21T09:54:55;97191.78;;;5.28;91.55
26865;BME280;40618;51.166;10.322;2023-11-21T09:57:26;97196.88;;;5.31;91.75
26865;BME280;40618;51.166;10.322;2023-11-21T09:59:53;97196.81;;;5.34;92.08
26865;BME280;40618;51.166;10.322;2023-11-21T10:02:25;97191.66;;;5.35;91.90
26865;BME280;40618;51.166;10.322;2023-11-21T10:04:53;97200.22;;;5.37;91.66
26865;BME280;40618;51.166;10.322;2023-11-21T10:07:20;97198.50;;;5.36;91.43
26865;BME280;40618;51.166;10.322;2023-11-21T10:09:47;97203.63;;;5.36;91.82
26865;BME280;40618;51.166;10.322;2023-11-21T10:12:16;97202.78;;;5.37;91.84
26865;BME280;40618;51.166;10.322;2023-11-21T10:14:42;97200.19;;;5.39;92.16
26865;BME280;40618;51.166;10.322;2023-11-21T10:17:10;97195.03;;;5.39;92.15
26865;BME280;40618;51.166;10.322;2023-11-21T10:19:39;97195.88;;;5.39;91.95
26865;BME280;40618;51.166;10.322;2023-11-21T10:22:06;97197.53;;;5.43;91.96
26865;BME280;40618;51.166;10.322;2023-11-21T10:24:35;97197.50;;;5.45;91.75
26865;BME280;40618;51.166;10.322;2023-11-21T10:27:02;97197.50;;;5.47;91.80
26865;BME280;40618;51.166;10.322;2023-11-21T10:29:29;97207.75;;;5.50;92.24
26865;BME280;40618;51.166;10.322;2023-11-21T10:31:55;97212.88;;;5.50;92.04
26865;BME280;40618;51.166;10.322;2023-11-21T10:34:24;97208.63;;;5.47;92.43
26865;BME280;40618;51.166;10.322;2023-11-21T10:36:50;97206.09;;;5.46;91.86
26865;BME280;40618;51.166;10.322;2023-11-21T10:39:22;97205.22;;;5.45;91.86
26865;BME280;40618;51.166;10.322;2023-11-21T10:41:49;97203.50;;;5.47;92.21
26865;BME280;40618;51.166;10.322;2023-11-21T10:44:19;97214.56;;;5.51;92.12
26865;BME280;40618;51.166;10.322;2023-11-21T10:46:55;97212.00;;;5.52;92.15
26865;BME280;40618;51.166;10.322;2023-11-21T10:49:22;97212.78;;;5.56;92.45
26865;BME280;40618;51.166;10.322;2023-11-21T10:51:50;97211.88;;;5.58;92.06
26865;BME280;40618;51.166;10.322;2023-11-21T10:54:22;97215.28;;;5.62;92.30
26865;BME280;40618;51.166;10.322;2023-11-21T10:56:50;97222.13;;;5.63;92.48
26865;BME280;40618;51.166;10.322;2023-11-21T10:59:22;97214.41;;;5.62;92.39
26865;BME280;40618;51.166;10.322;2023-11-21T11:01:50;97219.56;;;5.63;92.23
26865;BME280;40618;51.166;10.322;2023-11-21T11:04:19;97222.13;;;5.60;92.26
26865;BME280;40618;51.166;10.322;2023-11-21T11:06:50;97221.31;;;5.58;92.00
26865;BME280;40618;51.166;10.322;2023-11-21T11:09:20;97223.91;;;5.56;92.42
26865;BME280;40618;51.166;10.322;2023-11-21T11:11:46;97224.75;;;5.57;91.97
26865;BME280;40618;51.166;10.322;2023-11-21T11:14:12;97225.56;;;5.61;92.28
26865;BME280;40618;51.166;10.322;2023-11-21T11:16:40;97230.63;;;5.65;92.24
26865;BME280;40618;51.166;10.322;2023-11-21T11:19:07;97228.09;;;5.64;92.13
26865;BME280;40618;51.166;10.322;2023-11-21T11:22:04;97231.47;;;5.66;92.14
26865;BME280;40618;51.166;10.322;2023-11-21T11:28:02;97235.72;;;5.68;92.24
26865;BME280;40618;51.166;10.322;2023-11-21T11:31:14;97240.84;;;5.70;92.61
26865;BME280;40618;51.166;10.322;2023-11-21T11:33:52;97240.84;;;5.71;92.34
26865;BME280;40618;51.166;10.322;2023-11-21T11:36:43;97243.41;;;5.71;92.67
26865;BME280;40618;51.166;10.322;2023-11-21T11:39:43;97243.34;;;5.74;92.37
26865;BME280;40618;51.166;10.322;2023-11-21T11:42:14;97242.50;;;5.75;92.43
26865;BME280;40618;51.166;10.322;2023-11-21T11:50:11;97243.22;;;5.85;93.03
26865;BME280;40618;51.166;10.322;2023-11-21T11:55:16;97242.31;;;5.88;92.77
26865;BME280;40618;51.166;10.322;2023-11-21T11:57:47;97244.03;;;5.86;92.29
26865;BME280;40618;51.166;10.322;2023-11-21T12:00:17;97249.19;;;5.86;92.95
26865;BME280;40618;51.166;10.322;2023-11-21T12:02:49;97244.03;;;5.86;92.58
26865;BME280;40618;51.166;10.322;2023-11-21T12:05:21;97257.72;;;5.89;93.10
26865;BME280;40618;51.166;10.322;2023-11-21T12:07:52;97256.81;;;5.92;92.94
26865;BME280;40618;51.166;10.322;2023-11-21T12:10:35;97252.50;;;5.92;92.77
26865;BME280;40618;51.166;10.322;2023-11-21T12:13:07;97256.75;;;5.95;92.85
26865;BME280;40618;51.166;10.322;2023-11-21T12:15:35;97262.75;;;5.99;92.50
26865;BME280;40618;51.166;10.322;2023-11-21T12:18:02;97259.25;;;6.01;93.05
26865;BME280;40618;51.166;10.322;2023-11-21T12:20:30;97261.00;;;6.01;93.10
26865;BME280;40618;51.166;10.322;2023-11-21T12:22:58;97272.19;;;5.95;93.01
26865;BME280;40618;51.166;10.322;2023-11-21T12:25:28;97270.47;;;5.94;92.35
26865;BME280;40618;51.166;10.322;2023-11-21T12:27:57;97265.34;;;5.94;92.90
26865;BME280;40618;51.166;10.322;2023-11-21T12:30:26;97275.56;;;5.97;92.78
26865;BME280;40618;51.166;10.322;2023-11-21T12:32:55;97271.28;;;5.99;93.19
26865;BME280;40618;51.166;10.322;2023-11-21T12:35:25;97270.41;;;5.97;93.07
26865;BME280;40618;51.166;10.322;2023-11-21T12:37:56;97267.88;;;5.96;92.57
26865;BME280;40618;51.166;10.322;2023-11-21T12:40:25;97278.13;;;5.97;93.30
26865;BME280;40618;51.166;10.322;2023-11-21T12:42:53;97283.31;;;5.96;93.08
26865;BME280;40618;51.166;10.322;2023-11-21T12:45:22;97277.34;;;5.93;92.68
26865;BME280;40618;51.166;10.322;2023-11-21T12:47:51;97278.25;;;5.91;92.85
26865;BME280;40618;51.166;10.322;2023-11-21T12:50:21;97279.94;;;5.90;92.98
26865;BME280;40618;51.166;10.322;2023-11-21T12:52:50;97283.38;;;5.91;92.79
26865;BME280;40618;51.166;10.322;2023-11-21T12:55:17;97274.81;;;5.90;93.13
26865;BME280;40618;51.166;10.322;2023-11-21T12:57:52;97279.06;;;5.91;93.16
26865;BME280;40618;51.166;10.322;2023-11-21T13:00:20;97277.38;;;5.92;92.95
26865;BME280;40618;51.166;10.322;2023-11-21T13:02:55;97287.66;;;5.92;93.54
26865;BME280;40618;51.166;10.322;2023-11-21T13:05:47;97287.63;;;5.93;92.81
26865;BME280;40618;51.166;10.322;2023-11-21T13:08:16;97289.34;;;5.95;92.89
26865;BME280;40618;51.166;10.322;2023-11-21T13:10:46;97282.47;;;5.95;93.22
26865;BME280;40618;51.166;10.322;2023-11-21T13:13:15;97276.47;;;5.96;93.20
26865;BME280;40618;51.166;10.322;2023-11-21T13:15:51;97294.44;;;5.99;93.59
26865;BME280;40618;51.166;10.322;2023-11-21T13:18:28;97293.53;;;6.02;93.11